Time;durP1;ratioP1;P1;durP2;ratioP2;P2;SDS_P1;SDS_P2;PMS_P1;PMS_P2;Temp;Humidity;BMP_temperature;BMP_pressure;BME280_temperature;BME280_humidity;BME280_pressure;Samples;Min_cycle;Max_cycle;Signal;HPM_P1;HPM_P2
2022/12/21 00:01:42;;;;;;;22.67;11.90;;;;;;;;;;5004841;28;20706;-80
2022/12/21 00:04:09;;;;;;;11.73;8.60;;;;;;;;;;5007118;28;20667;-80
2022/12/21 00:06:36;;;;;;;11.90;8.87;;;;;;;;;;5001728;28;20273;-80
2022/12/21 00:09:03;;;;;;;9.90;8.47;;;;;;;;;;5006319;28;20679;-80
2022/12/21 00:11:30;;;;;;;10.97;8.70;;;;;;;;;;4999232;28;20226;-80
2022/12/21 00:13:58;;;;;;;13.73;9.80;;;;;;;;;;4984462;28;20246;-80
2022/12/21 00:16:25;;;;;;;13.87;9.60;;;;;;;;;;5008069;28;20210;-80
2022/12/21 00:18:52;;;;;;;13.73;9.90;;;;;;;;;;5008519;28;20554;-80
2022/12/21 00:21:19;;;;;;;12.47;9.47;;;;;;;;;;4982829;28;20215;-80
2022/12/21 00:23:46;;;;;;;13.30;10.07;;;;;;;;;;5003289;28;20564;-80
2022/12/21 00:26:13;;;;;;;11.73;9.40;;;;;;;;;;5006630;28;20179;-80
2022/12/21 00:28:40;;;;;;;13.20;9.27;;;;;;;;;;5008327;28;20206;-80
2022/12/21 00:31:06;;;;;;;11.87;9.40;;;;;;;;;;5007922;28;20207;-80
2022/12/21 00:33:33;;;;;;;11.73;9.17;;;;;;;;;;4987836;28;20406;-80
2022/12/21 00:35:59;;;;;;;13.53;9.50;;;;;;;;;;4991721;28;20187;-80
2022/12/21 00:38:26;;;;;;;11.67;9.23;;;;;;;;;;5003786;28;20198;-80
2022/12/21 00:40:56;;;;;;;14.60;10.50;;;;;;;;;;5002708;28;20227;-80
2022/12/21 00:43:22;;;;;;;12.37;9.40;;;;;;;;;;5003972;28;20221;-80
2022/12/21 00:45:48;;;;;;;11.17;9.20;;;;;;;;;;5002453;28;20193;-80
2022/12/21 00:48:14;;;;;;;12.17;9.10;;;;;;;;;;5004075;28;20175;-80
2022/12/21 00:50:41;;;;;;;13.37;10.20;;;;;;;;;;5003761;28;20328;-79
2022/12/21 00:53:08;;;;;;;11.23;9.13;;;;;;;;;;5004551;28;20180;-80
2022/12/21 00:55:35;;;;;;;12.93;9.97;;;;;;;;;;5001380;28;20183;-80
2022/12/21 00:58:01;;;;;;;12.63;9.73;;;;;;;;;;5001275;28;20234;-80
2022/12/21 01:00:28;;;;;;;11.13;9.93;;;;;;;;;;5009875;28;20318;-80
2022/12/21 01:02:54;;;;;;;13.53;10.83;;;;;;;;;;5007019;28;20183;-79
2022/12/21 01:05:20;;;;;;;12.03;9.93;;;;;;;;;;5008898;28;20246;-79
2022/12/21 01:07:47;;;;;;;14.93;11.33;;;;;;;;;;4989295;28;20184;-79
2022/12/21 01:10:14;;;;;;;13.63;11.10;;;;;;;;;;5004292;28;20191;-84
2022/12/21 01:12:40;;;;;;;12.57;10.43;;;;;;;;;;4997225;28;20214;-80
2022/12/21 01:15:07;;;;;;;13.37;11.03;;;;;;;;;;4980359;28;20813;-78
2022/12/21 01:17:34;;;;;;;13.80;10.87;;;;;;;;;;5005376;28;20978;-79
2022/12/21 01:20:00;;;;;;;13.83;10.40;;;;;;;;;;5010988;28;20618;-82
2022/12/21 01:22:26;;;;;;;15.47;10.83;;;;;;;;;;4994932;28;20211;-79
2022/12/21 01:24:53;;;;;;;14.53;11.63;;;;;;;;;;5007343;28;20190;-79
2022/12/21 01:27:20;;;;;;;16.77;11.77;;;;;;;;;;4988487;28;20171;-79
2022/12/21 01:29:46;;;;;;;16.17;11.43;;;;;;;;;;4985036;28;20202;-79
2022/12/21 01:32:12;;;;;;;15.27;12.03;;;;;;;;;;5003107;28;20207;-79
2022/12/21 01:34:38;;;;;;;17.33;12.23;;;;;;;;;;4998130;28;20199;-79
2022/12/21 01:37:06;;;;;;;17.03;12.80;;;;;;;;;;5000993;28;20278;-79
2022/12/21 01:39:32;;;;;;;15.73;12.20;;;;;;;;;;4995990;28;20214;-79
2022/12/21 01:41:58;;;;;;;15.53;12.63;;;;;;;;;;4985200;28;20346;-79
2022/12/21 01:44:43;;;;;;;16.63;12.00;;;;;;;;;;5005681;28;20191;-79
2022/12/21 01:47:13;;;;;;;16.60;12.60;;;;;;;;;;4988006;28;20213;-79
2022/12/21 01:49:39;;;;;;;16.47;12.77;;;;;;;;;;4987492;28;20199;-79
2022/12/21 01:52:08;;;;;;;15.73;12.00;;;;;;;;;;5002222;28;20217;-79
2022/12/21 01:54:41;;;;;;;15.80;12.50;;;;;;;;;;5007024;28;20278;-79
2022/12/21 01:57:10;;;;;;;14.60;11.67;;;;;;;;;;5005808;28;20191;-79
2022/12/21 01:59:38;;;;;;;17.60;13.90;;;;;;;;;;5009844;28;20211;-79
2022/12/21 02:02:08;;;;;;;14.93;12.97;;;;;;;;;;5004169;28;20204;-79
2022/12/21 02:04:34;;;;;;;15.80;12.80;;;;;;;;;;4999501;28;20568;-79
2022/12/21 02:07:01;;;;;;;15.63;12.40;;;;;;;;;;5011923;28;20573;-79
2022/12/21 02:09:29;;;;;;;24.57;18.10;;;;;;;;;;5002722;28;20175;-79
2022/12/21 02:11:56;;;;;;;18.07;14.20;;;;;;;;;;5004117;28;20210;-79
2022/12/21 02:14:22;;;;;;;15.73;13.03;;;;;;;;;;5010671;28;20195;-79
2022/12/21 02:16:49;;;;;;;15.83;13.30;;;;;;;;;;5009384;28;20658;-79
2022/12/21 02:19:15;;;;;;;16.60;12.93;;;;;;;;;;5015503;28;20206;-79
2022/12/21 02:21:51;;;;;;;15.43;12.30;;;;;;;;;;5008636;28;20290;-79
2022/12/21 02:24:23;;;;;;;15.03;12.73;;;;;;;;;;4995481;28;20279;-79
2022/12/21 02:26:57;;;;;;;15.67;12.33;;;;;;;;;;5005759;28;20195;-79
2022/12/21 02:29:29;;;;;;;19.17;13.30;;;;;;;;;;5009428;28;20991;-79
2022/12/21 02:32:13;;;;;;;16.47;12.20;;;;;;;;;;5021303;28;20290;-79
2022/12/21 02:34:59;;;;;;;17.00;12.93;;;;;;;;;;5001343;28;20832;-79
2022/12/21 02:37:31;;;;;;;15.63;12.80;;;;;;;;;;4987217;28;20191;-79
2022/12/21 02:40:01;;;;;;;14.43;12.57;;;;;;;;;;5004286;28;20214;-79
2022/12/21 02:45:30;;;;;;;15.90;12.70;;;;;;;;;;5012762;28;20202;-79
2022/12/21 02:48:09;;;;;;;15.57;12.87;;;;;;;;;;4983628;28;20242;-79
2022/12/21 02:50:38;;;;;;;17.40;14.03;;;;;;;;;;4999970;28;20569;-79
2022/12/21 02:53:08;;;;;;;13.67;11.73;;;;;;;;;;4987290;28;20958;-79
2022/12/21 02:55:34;;;;;;;15.70;11.60;;;;;;;;;;5003777;28;20186;-79
2022/12/21 02:58:14;;;;;;;14.73;12.80;;;;;;;;;;5006199;28;20179;-79
2022/12/21 03:00:50;;;;;;;17.37;12.30;;;;;;;;;;5008041;28;20210;-79
2022/12/21 03:03:50;;;;;;;15.50;12.13;;;;;;;;;;4990799;28;20189;-79
2022/12/21 03:06:25;;;;;;;13.67;11.80;;;;;;;;;;4988664;28;20827;-79
2022/12/21 03:09:28;;;;;;;17.67;12.57;;;;;;;;;;4990961;28;20296;-79
2022/12/21 03:12:27;;;;;;;12.43;11.07;;;;;;;;;;4957939;28;20773;-79
2022/12/21 03:14:58;;;;;;;15.93;11.40;;;;;;;;;;4990618;28;20782;-79
2022/12/21 03:17:38;;;;;;;13.33;11.93;;;;;;;;;;5007532;28;20179;-79
2022/12/21 03:20:24;;;;;;;14.33;11.43;;;;;;;;;;4982190;28;20211;-79
2022/12/21 03:22:58;;;;;;;12.90;11.07;;;;;;;;;;5004981;28;20170;-79
2022/12/21 03:25:24;;;;;;;13.57;11.30;;;;;;;;;;5009971;28;20226;-79
2022/12/21 03:27:52;;;;;;;15.30;11.40;;;;;;;;;;5010885;28;20186;-79
2022/12/21 03:30:20;;;;;;;12.47;10.90;;;;;;;;;;5010447;28;20190;-79
2022/12/21 03:32:48;;;;;;;14.23;11.90;;;;;;;;;;5002026;28;20316;-79
2022/12/21 03:35:27;;;;;;;15.30;11.80;;;;;;;;;;5006508;28;20191;-79
2022/12/21 03:37:55;;;;;;;15.33;11.47;;;;;;;;;;5002871;28;20202;-79
2022/12/21 03:40:25;;;;;;;16.47;11.87;;;;;;;;;;5010445;28;20769;-79
2022/12/21 03:42:58;;;;;;;13.10;10.83;;;;;;;;;;5010866;28;20189;-79
2022/12/21 03:45:28;;;;;;;15.67;11.20;;;;;;;;;;5020561;28;20210;-79
2022/12/21 03:48:09;;;;;;;13.67;11.80;;;;;;;;;;5011702;28;20697;-79
2022/12/21 03:50:38;;;;;;;15.20;10.90;;;;;;;;;;5009952;28;20192;-79
2022/12/21 03:53:07;;;;;;;13.30;11.30;;;;;;;;;;5000409;28;20187;-79
2022/12/21 03:55:36;;;;;;;13.30;11.30;;;;;;;;;;5010351;28;20233;-79
2022/12/21 03:58:02;;;;;;;15.70;11.40;;;;;;;;;;5003598;28;20191;-79
2022/12/21 04:00:31;;;;;;;14.97;11.17;;;;;;;;;;5024138;28;20199;-80
2022/12/21 04:03:07;;;;;;;13.40;10.73;;;;;;;;;;4990891;28;20203;-79
2022/12/21 04:05:40;;;;;;;13.27;11.10;;;;;;;;;;4994820;28;20168;-79
2022/12/21 04:08:07;;;;;;;13.27;11.43;;;;;;;;;;5002443;28;20242;-79
2022/12/21 04:10:33;;;;;;;14.73;11.70;;;;;;;;;;5000024;28;20179;-79
2022/12/21 04:12:59;;;;;;;14.20;11.63;;;;;;;;;;5011010;28;20194;-79
2022/12/21 04:16:02;;;;;;;13.23;10.83;;;;;;;;;;5012174;28;20171;-79
2022/12/21 04:19:57;;;;;;;14.23;12.00;;;;;;;;;;4998966;28;20551;-79
2022/12/21 04:21:02;;;;;;;14.43;11.70;;;;;;;;;;5014239;28;20273;-79
2022/12/21 04:28:58;;;;;;;19.40;16.43;;;;;;;;;;4995783;28;20829;-79
2022/12/21 04:31:24;;;;;;;15.53;12.67;;;;;;;;;;5003965;28;20238;-79
2022/12/21 04:33:50;;;;;;;14.90;11.80;;;;;;;;;;5007236;28;20188;-79
2022/12/21 04:39:01;;;;;;;16.30;12.37;;;;;;;;;;5015399;28;20662;-79
2022/12/21 04:41:27;;;;;;;14.18;12.05;;;;;;;;;;5004312;28;20436;-79
2022/12/21 04:43:54;;;;;;;13.37;11.50;;;;;;;;;;5012889;28;20171;-79
2022/12/21 04:46:20;;;;;;;16.57;10.63;;;;;;;;;;5012778;28;20191;-79
2022/12/21 04:48:46;;;;;;;16.37;12.30;;;;;;;;;;4999884;28;20267;-79
2022/12/21 04:51:18;;;;;;;13.30;11.07;;;;;;;;;;5002446;28;20208;-80
2022/12/21 04:53:44;;;;;;;12.63;11.07;;;;;;;;;;5014159;28;20243;-79
2022/12/21 04:56:10;;;;;;;15.73;11.70;;;;;;;;;;4995651;28;20190;-79
2022/12/21 04:58:37;;;;;;;14.03;11.13;;;;;;;;;;5001536;28;20660;-79
2022/12/21 05:01:07;;;;;;;14.73;11.97;;;;;;;;;;5008867;28;20218;-79
2022/12/21 05:03:34;;;;;;;14.70;10.93;;;;;;;;;;5016925;28;20813;-80
2022/12/21 05:06:00;;;;;;;14.93;12.20;;;;;;;;;;5032294;28;20250;-81
2022/12/21 05:08:28;;;;;;;19.07;11.90;;;;;;;;;;5011692;28;20176;-80
2022/12/21 05:10:54;;;;;;;19.30;12.53;;;;;;;;;;5019465;28;20207;-80
2022/12/21 05:13:20;;;;;;;14.20;11.82;;;;;;;;;;5013051;28;20418;-80
2022/12/21 05:15:47;;;;;;;14.13;11.27;;;;;;;;;;5011206;28;20175;-80
2022/12/21 05:18:13;;;;;;;12.97;11.53;;;;;;;;;;5022431;28;20574;-80
2022/12/21 05:20:39;;;;;;;13.20;10.83;;;;;;;;;;5014664;28;20215;-80
2022/12/21 05:23:05;;;;;;;13.17;11.30;;;;;;;;;;5021173;28;20190;-80
2022/12/21 05:25:32;;;;;;;13.27;11.67;;;;;;;;;;5008278;28;20184;-80
2022/12/21 05:27:59;;;;;;;14.47;11.63;;;;;;;;;;5014732;28;20182;-80
2022/12/21 05:30:25;;;;;;;15.60;12.00;;;;;;;;;;5011377;28;20321;-80
2022/12/21 05:32:51;;;;;;;14.43;11.67;;;;;;;;;;5030088;28;20197;-80
2022/12/21 05:35:17;;;;;;;19.03;11.93;;;;;;;;;;5020907;28;20176;-80
2022/12/21 05:37:44;;;;;;;17.17;12.07;;;;;;;;;;5020424;28;20218;-80
2022/12/21 05:40:10;;;;;;;16.33;12.87;;;;;;;;;;5023130;28;20756;-80
2022/12/21 05:42:36;;;;;;;13.00;11.20;;;;;;;;;;4997579;28;20286;-81
2022/12/21 05:45:02;;;;;;;14.80;11.67;;;;;;;;;;4992163;28;20253;-80
2022/12/21 05:47:28;;;;;;;12.47;10.20;;;;;;;;;;5019414;28;20203;-81
2022/12/21 05:49:54;;;;;;;14.57;11.13;;;;;;;;;;5011383;28;20176;-81
2022/12/21 05:52:21;;;;;;;16.43;10.67;;;;;;;;;;5024652;28;20206;-81
2022/12/21 05:54:47;;;;;;;17.17;10.80;;;;;;;;;;5033656;28;20179;-80
2022/12/21 05:57:13;;;;;;;11.87;9.97;;;;;;;;;;5013070;28;20282;-81
2022/12/21 05:59:39;;;;;;;12.40;11.03;;;;;;;;;;5007340;28;20210;-81
2022/12/21 06:02:05;;;;;;;12.57;10.30;;;;;;;;;;5008069;28;20195;-81
2022/12/21 06:04:31;;;;;;;12.83;9.77;;;;;;;;;;5019873;28;20257;-81
2022/12/21 06:06:57;;;;;;;13.77;9.80;;;;;;;;;;5008663;28;20651;-83
2022/12/21 06:09:23;;;;;;;11.07;9.60;;;;;;;;;;4989165;28;20184;-80
2022/12/21 06:11:50;;;;;;;10.30;9.03;;;;;;;;;;4982857;28;20215;-80
2022/12/21 06:14:16;;;;;;;11.60;9.93;;;;;;;;;;5014227;28;20180;-79
2022/12/21 06:16:43;;;;;;;11.43;9.17;;;;;;;;;;5005998;28;20622;-76
2022/12/21 06:19:09;;;;;;;14.03;9.30;;;;;;;;;;5001018;28;20226;-77
2022/12/21 06:21:36;;;;;;;10.27;9.17;;;;;;;;;;4997855;28;20214;-77
2022/12/21 06:24:02;;;;;;;14.10;10.10;;;;;;;;;;4996526;28;20195;-76
2022/12/21 06:26:29;;;;;;;10.43;9.07;;;;;;;;;;4999745;28;20440;-77
2022/12/21 06:28:55;;;;;;;8.60;7.80;;;;;;;;;;5000801;28;20254;-77
2022/12/21 06:31:22;;;;;;;9.57;8.30;;;;;;;;;;5000908;28;20203;-77
2022/12/21 06:33:48;;;;;;;13.77;9.07;;;;;;;;;;4996263;28;20682;-77
2022/12/21 06:36:15;;;;;;;11.07;8.77;;;;;;;;;;4997398;28;20279;-77
2022/12/21 06:38:41;;;;;;;12.97;9.07;;;;;;;;;;5002360;28;20278;-77
2022/12/21 06:41:12;;;;;;;12.17;8.90;;;;;;;;;;5000460;28;20587;-77
2022/12/21 06:43:38;;;;;;;12.23;9.33;;;;;;;;;;4998843;28;20184;-77
2022/12/21 06:46:06;;;;;;;9.20;8.20;;;;;;;;;;5000748;28;20323;-77
2022/12/21 06:48:33;;;;;;;8.90;7.93;;;;;;;;;;5003285;28;20215;-77
2022/12/21 06:51:00;;;;;;;9.10;8.10;;;;;;;;;;5001522;28;20336;-77
2022/12/21 06:53:28;;;;;;;10.63;7.70;;;;;;;;;;5000623;28;20187;-77
2022/12/21 06:55:58;;;;;;;11.23;9.30;;;;;;;;;;4998579;28;20187;-77
2022/12/21 06:58:24;;;;;;;10.70;8.80;;;;;;;;;;4995072;28;20179;-78
2022/12/21 07:00:50;;;;;;;9.27;7.53;;;;;;;;;;4997202;28;20246;-77
2022/12/21 07:03:16;;;;;;;12.53;8.40;;;;;;;;;;5002990;28;20179;-77
2022/12/21 07:05:42;;;;;;;11.57;8.53;;;;;;;;;;4995485;28;20191;-77
2022/12/21 07:08:09;;;;;;;9.20;8.20;;;;;;;;;;4999841;28;20168;-77
2022/12/21 07:10:37;;;;;;;11.30;7.70;;;;;;;;;;5002546;28;20222;-77
2022/12/21 07:13:03;;;;;;;11.70;8.30;;;;;;;;;;4996339;28;20670;-77
2022/12/21 07:15:32;;;;;;;9.60;7.77;;;;;;;;;;4998277;28;20265;-77
2022/12/21 07:17:58;;;;;;;10.80;8.60;;;;;;;;;;4996343;28;20183;-76
2022/12/21 07:20:25;;;;;;;10.17;8.03;;;;;;;;;;4994879;28;20231;-74
2022/12/21 07:22:51;;;;;;;10.80;7.80;;;;;;;;;;4999470;28;20864;-74
2022/12/21 07:25:17;;;;;;;9.83;8.10;;;;;;;;;;4993644;28;20309;-74
2022/12/21 07:27:43;;;;;;;9.37;8.30;;;;;;;;;;4994584;28;20214;-74
2022/12/21 07:30:10;;;;;;;10.43;7.80;;;;;;;;;;5000132;28;20188;-75
2022/12/21 07:32:36;;;;;;;11.83;8.63;;;;;;;;;;4995547;28;20206;-75
2022/12/21 07:35:02;;;;;;;11.53;8.37;;;;;;;;;;4997094;28;20911;-75
2022/12/21 07:37:28;;;;;;;10.87;9.17;;;;;;;;;;4999450;28;20180;-75
2022/12/21 07:39:54;;;;;;;13.87;9.10;;;;;;;;;;4994889;28;20222;-75
2022/12/21 07:42:21;;;;;;;10.63;8.77;;;;;;;;;;4999420;28;20258;-76
2022/12/21 07:45:05;;;;;;;11.60;8.87;;;;;;;;;;4999397;28;20862;-76
2022/12/21 07:47:38;;;;;;;11.63;8.97;;;;;;;;;;5014206;28;20194;-76
2022/12/21 07:50:05;;;;;;;16.03;10.83;;;;;;;;;;4996763;28;20176;-74
2022/12/21 07:52:31;;;;;;;13.67;9.20;;;;;;;;;;4998596;28;20217;-73
2022/12/21 07:54:58;;;;;;;13.70;8.80;;;;;;;;;;5002720;28;20224;-71
2022/12/21 07:57:24;;;;;;;13.93;9.60;;;;;;;;;;4999029;28;20667;-71
2022/12/21 07:59:50;;;;;;;9.97;8.60;;;;;;;;;;5001736;28;20290;-71
2022/12/21 08:02:17;;;;;;;12.10;9.13;;;;;;;;;;4996693;28;20339;-72
2022/12/21 08:04:43;;;;;;;11.90;9.37;;;;;;;;;;4999357;28;20182;-72
2022/12/21 08:07:09;;;;;;;14.80;8.70;;;;;;;;;;4997232;28;20207;-73
2022/12/21 08:09:35;;;;;;;11.13;8.73;;;;;;;;;;5000074;28;20214;-72
2022/12/21 08:12:01;;;;;;;11.47;8.53;;;;;;;;;;4999446;28;20199;-73
2022/12/21 08:14:28;;;;;;;11.30;8.73;;;;;;;;;;4997897;28;20192;-73
2022/12/21 08:16:54;;;;;;;11.30;9.33;;;;;;;;;;4997196;28;20183;-73
2022/12/21 08:19:21;;;;;;;11.67;8.27;;;;;;;;;;4997525;28;20210;-74
2022/12/21 08:21:47;;;;;;;10.13;8.37;;;;;;;;;;4997536;28;20203;-73
2022/12/21 08:24:13;;;;;;;14.53;8.13;;;;;;;;;;4997778;28;20206;-74
2022/12/21 08:26:39;;;;;;;11.47;8.10;;;;;;;;;;4998098;28;20283;-74
2022/12/21 08:29:05;;;;;;;9.60;7.40;;;;;;;;;;4997546;28;20361;-73
2022/12/21 08:31:32;;;;;;;13.40;8.40;;;;;;;;;;4996161;28;20269;-72
2022/12/21 08:33:58;;;;;;;10.53;8.63;;;;;;;;;;4995564;28;20775;-73
2022/12/21 08:36:25;;;;;;;12.53;7.67;;;;;;;;;;4996565;28;20549;-73
2022/12/21 08:38:51;;;;;;;10.50;7.63;;;;;;;;;;4997483;28;20531;-73
2022/12/21 08:41:18;;;;;;;11.27;7.90;;;;;;;;;;4995819;28;20234;-72
2022/12/21 08:43:44;;;;;;;9.37;7.47;;;;;;;;;;4996428;28;20184;-73
2022/12/21 08:46:11;;;;;;;11.57;7.73;;;;;;;;;;4998206;28;20283;-72
2022/12/21 08:48:37;;;;;;;10.00;8.10;;;;;;;;;;4995541;28;20267;-73
2022/12/21 08:51:03;;;;;;;10.87;8.10;;;;;;;;;;4997482;28;20203;-73
2022/12/21 08:53:30;;;;;;;10.33;7.83;;;;;;;;;;4999262;28;20216;-73
2022/12/21 08:55:56;;;;;;;10.23;7.80;;;;;;;;;;4997681;28;20184;-73
2022/12/21 08:58:23;;;;;;;11.10;8.00;;;;;;;;;;4997597;28;20218;-73
2022/12/21 09:00:51;;;;;;;10.67;8.27;;;;;;;;;;4997756;28;20229;-73
2022/12/21 09:03:18;;;;;;;11.70;8.03;;;;;;;;;;4997624;28;21343;-73
2022/12/21 09:05:45;;;;;;;12.30;7.80;;;;;;;;;;5000016;28;20186;-73
2022/12/21 09:08:12;;;;;;;12.83;8.97;;;;;;;;;;4997756;28;21976;-74
2022/12/21 09:10:38;;;;;;;10.47;7.50;;;;;;;;;;5000258;28;20191;-73
2022/12/21 09:13:05;;;;;;;10.03;7.77;;;;;;;;;;5000821;28;20239;-73
2022/12/21 09:15:31;;;;;;;8.57;7.27;;;;;;;;;;5001848;28;20188;-74
2022/12/21 09:17:57;;;;;;;8.13;6.83;;;;;;;;;;5000716;28;20187;-74
2022/12/21 09:20:23;;;;;;;11.90;7.50;;;;;;;;;;4998898;28;20717;-74
2022/12/21 09:22:50;;;;;;;9.60;7.50;;;;;;;;;;4999456;28;20652;-73
2022/12/21 09:25:16;;;;;;;9.83;7.30;;;;;;;;;;4998875;28;20176;-74
2022/12/21 09:27:42;;;;;;;10.23;6.97;;;;;;;;;;4999934;28;20270;-73
2022/12/21 09:30:09;;;;;;;11.50;6.60;;;;;;;;;;5000462;28;20195;-73
2022/12/21 09:32:35;;;;;;;8.60;6.03;;;;;;;;;;4996511;28;20199;-73
2022/12/21 09:35:02;;;;;;;9.53;6.97;;;;;;;;;;5000149;28;20261;-73
2022/12/21 09:37:28;;;;;;;8.73;6.13;;;;;;;;;;4998679;28;20179;-73
2022/12/21 09:39:55;;;;;;;7.60;5.77;;;;;;;;;;4997139;28;20246;-74
2022/12/21 09:42:21;;;;;;;6.70;6.00;;;;;;;;;;4996093;28;20203;-73
2022/12/21 09:44:58;;;;;;;9.77;6.10;;;;;;;;;;4996502;28;20180;-73
2022/12/21 09:47:32;;;;;;;8.10;5.90;;;;;;;;;;4997389;28;20274;-75
2022/12/21 09:50:00;;;;;;;9.17;5.57;;;;;;;;;;4996235;28;20184;-72
2022/12/21 09:52:39;;;;;;;7.50;5.87;;;;;;;;;;4996956;28;20854;-73
2022/12/21 09:55:07;;;;;;;7.50;5.60;;;;;;;;;;4997897;28;20175;-74
2022/12/21 09:57:34;;;;;;;8.60;5.90;;;;;;;;;;4998243;28;20199;-73
2022/12/21 10:00:01;;;;;;;8.20;5.40;;;;;;;;;;4996422;28;20225;-73
2022/12/21 10:02:42;;;;;;;6.20;5.20;;;;;;;;;;4996516;28;20281;-73
2022/12/21 10:05:09;;;;;;;8.50;5.30;;;;;;;;;;4998314;28;20253;-73
2022/12/21 10:07:35;;;;;;;9.80;5.40;;;;;;;;;;4995849;28;20177;-74
2022/12/21 10:10:02;;;;;;;9.10;5.77;;;;;;;;;;4997196;28;20179;-73
2022/12/21 10:12:48;;;;;;;6.40;5.00;;;;;;;;;;4994607;28;20233;-74
2022/12/21 10:15:33;;;;;;;9.13;5.97;;;;;;;;;;4996919;28;20216;-73
2022/12/21 10:18:17;;;;;;;8.77;5.40;;;;;;;;;;4998366;28;20308;-73
2022/12/21 10:20:50;;;;;;;9.13;5.40;;;;;;;;;;4996401;28;20215;-73
2022/12/21 10:23:25;;;;;;;8.13;5.47;;;;;;;;;;4997613;28;20219;-73
2022/12/21 10:25:55;;;;;;;5.93;5.27;;;;;;;;;;4997165;28;20195;-73
2022/12/21 10:28:30;;;;;;;7.33;5.20;;;;;;;;;;4997951;28;20791;-73
2022/12/21 10:31:04;;;;;;;8.00;5.17;;;;;;;;;;4998248;28;20256;-73
2022/12/21 10:33:30;;;;;;;9.93;5.67;;;;;;;;;;4996514;28;20183;-74
2022/12/21 10:35:59;;;;;;;6.83;5.10;;;;;;;;;;4996168;28;20275;-74
2022/12/21 10:38:28;;;;;;;10.13;5.20;;;;;;;;;;4996317;28;20206;-74
2022/12/21 10:40:55;;;;;;;6.63;5.10;;;;;;;;;;4996194;28;20214;-73
2022/12/21 10:43:22;;;;;;;9.43;5.27;;;;;;;;;;4996308;28;20262;-74
2022/12/21 10:45:49;;;;;;;6.63;5.00;;;;;;;;;;4995679;28;20564;-73
2022/12/21 10:48:15;;;;;;;7.43;5.30;;;;;;;;;;4994768;28;20199;-74
2022/12/21 10:50:44;;;;;;;7.87;5.50;;;;;;;;;;4994686;28;20284;-74
2022/12/21 10:53:18;;;;;;;7.03;4.43;;;;;;;;;;4998806;28;20199;-74
2022/12/21 10:55:45;;;;;;;8.93;5.30;;;;;;;;;;4995610;28;20830;-73
2022/12/21 10:58:16;;;;;;;7.67;5.33;;;;;;;;;;4997734;28;20258;-73
2022/12/21 11:00:50;;;;;;;14.27;10.00;;;;;;;;;;4998593;28;20292;-75
2022/12/21 11:03:23;;;;;;;8.13;6.13;;;;;;;;;;5002145;28;20233;-75
2022/12/21 11:05:49;;;;;;;9.73;5.57;;;;;;;;;;5000716;28;20237;-76
2022/12/21 11:08:16;;;;;;;7.03;4.97;;;;;;;;;;4998460;28;20305;-73
2022/12/21 11:10:44;;;;;;;5.63;4.37;;;;;;;;;;4996571;28;20222;-73
2022/12/21 11:13:11;;;;;;;7.13;4.50;;;;;;;;;;4999043;28;20199;-76
2022/12/21 11:15:37;;;;;;;8.27;5.03;;;;;;;;;;4998117;28;20190;-71
2022/12/21 11:18:04;;;;;;;8.00;5.17;;;;;;;;;;4997425;28;20180;-71
2022/12/21 11:20:30;;;;;;;8.43;4.63;;;;;;;;;;4996261;28;20286;-71
2022/12/21 11:22:58;;;;;;;5.80;4.43;;;;;;;;;;4997843;28;20178;-73
2022/12/21 11:25:27;;;;;;;8.50;4.50;;;;;;;;;;4994879;28;20865;-73
2022/12/21 11:28:00;;;;;;;5.53;4.83;;;;;;;;;;4994859;28;20184;-74
2022/12/21 11:30:27;;;;;;;8.03;5.07;;;;;;;;;;4999352;28;20183;-78
2022/12/21 11:32:55;;;;;;;6.80;4.90;;;;;;;;;;5003276;28;20194;-76
2022/12/21 11:35:23;;;;;;;6.40;5.00;;;;;;;;;;5001557;28;20200;-77
2022/12/21 11:37:54;;;;;;;9.10;5.00;;;;;;;;;;4993467;28;20191;-79
2022/12/21 11:40:22;;;;;;;6.73;5.43;;;;;;;;;;5000057;28;20294;-78
2022/12/21 11:42:52;;;;;;;5.50;4.37;;;;;;;;;;5003303;28;20188;-77
2022/12/21 11:45:22;;;;;;;4.80;4.30;;;;;;;;;;4996311;28;20195;-75
2022/12/21 11:47:55;;;;;;;6.77;4.80;;;;;;;;;;5000122;28;20325;-77
2022/12/21 11:50:48;;;;;;;5.17;4.67;;;;;;;;;;5005232;28;20183;-77
2022/12/21 11:53:19;;;;;;;6.57;5.27;;;;;;;;;;4984657;28;21457;-77
2022/12/21 11:55:57;;;;;;;5.27;4.50;;;;;;;;;;4995729;28;20238;-77
2022/12/21 11:58:44;;;;;;;7.37;4.63;;;;;;;;;;5002787;28;20197;-77
2022/12/21 12:01:18;;;;;;;5.63;5.00;;;;;;;;;;4963926;28;20710;-77
2022/12/21 12:03:45;;;;;;;7.47;5.10;;;;;;;;;;5012104;28;20178;-77
2022/12/21 12:06:20;;;;;;;7.90;4.73;;;;;;;;;;5002618;28;20183;-77
2022/12/21 12:08:59;;;;;;;7.47;5.27;;;;;;;;;;5002508;28;20216;-76
2022/12/21 12:11:25;;;;;;;9.50;5.40;;;;;;;;;;5002989;28;20270;-76
2022/12/21 12:14:03;;;;;;;6.00;4.83;;;;;;;;;;5007248;28;20191;-73
2022/12/21 12:16:35;;;;;;;9.43;5.70;;;;;;;;;;4995979;28;20681;-73
2022/12/21 12:19:09;;;;;;;6.60;5.20;;;;;;;;;;4995388;28;20232;-72
2022/12/21 12:21:56;;;;;;;7.63;4.70;;;;;;;;;;4990837;28;20338;-73
2022/12/21 12:24:41;;;;;;;5.80;5.10;;;;;;;;;;4995743;28;20198;-74
2022/12/21 12:27:24;;;;;;;6.73;5.20;;;;;;;;;;4996315;28;20187;-73
2022/12/21 12:30:00;;;;;;;8.07;5.23;;;;;;;;;;4994284;28;20219;-74
2022/12/21 12:32:35;;;;;;;8.23;5.00;;;;;;;;;;4994929;28;20203;-74
2022/12/21 12:35:02;;;;;;;8.17;4.90;;;;;;;;;;4995130;28;20175;-74
2022/12/21 12:37:47;;;;;;;7.70;4.47;;;;;;;;;;4999338;28;20186;-76
2022/12/21 12:40:13;;;;;;;7.67;5.43;;;;;;;;;;4997934;28;20286;-73
2022/12/21 12:42:51;;;;;;;7.57;4.93;;;;;;;;;;4997346;28;20217;-73
2022/12/21 12:45:40;;;;;;;5.30;4.30;;;;;;;;;;5002744;28;20179;-73
2022/12/21 12:48:15;;;;;;;6.43;4.37;;;;;;;;;;5000094;28;20211;-73
2022/12/21 12:50:55;;;;;;;7.90;4.80;;;;;;;;;;4997636;28;20191;-74
2022/12/21 12:53:27;;;;;;;7.47;4.30;;;;;;;;;;4998404;28;20778;-74
2022/12/21 12:55:59;;;;;;;7.83;5.33;;;;;;;;;;4998010;28;20275;-74
2022/12/21 12:58:34;;;;;;;7.30;5.30;;;;;;;;;;5014422;28;20179;-75
2022/12/21 13:01:09;;;;;;;8.77;6.77;;;;;;;;;;4998281;28;20210;-74
2022/12/21 13:03:39;;;;;;;9.83;6.50;;;;;;;;;;4996951;28;20253;-74
2022/12/21 13:06:06;;;;;;;12.13;9.50;;;;;;;;;;4997991;28;20311;-74
2022/12/21 13:08:32;;;;;;;8.30;6.43;;;;;;;;;;4996597;28;20594;-74
2022/12/21 13:11:08;;;;;;;7.30;4.83;;;;;;;;;;4996481;28;20211;-74
2022/12/21 13:13:56;;;;;;;8.57;6.47;;;;;;;;;;4996025;28;20258;-74
2022/12/21 13:16:25;;;;;;;6.60;4.20;;;;;;;;;;4986134;28;20231;-74
2022/12/21 13:18:54;;;;;;;5.87;4.30;;;;;;;;;;4999959;28;20179;-74
2022/12/21 13:21:21;;;;;;;7.43;4.37;;;;;;;;;;5000015;28;20221;-74
2022/12/21 13:23:56;;;;;;;5.70;4.20;;;;;;;;;;4998420;28;20180;-74
2022/12/21 13:26:31;;;;;;;7.30;4.90;;;;;;;;;;4996721;28;20167;-74
2022/12/21 13:29:10;;;;;;;5.13;4.40;;;;;;;;;;4998420;28;20228;-74
2022/12/21 13:31:41;;;;;;;5.07;4.40;;;;;;;;;;4996467;28;20208;-74
2022/12/21 13:34:12;;;;;;;5.83;4.07;;;;;;;;;;4996877;28;20249;-74
2022/12/21 13:36:40;;;;;;;5.77;4.30;;;;;;;;;;4996669;28;20282;-74
2022/12/21 13:39:11;;;;;;;4.97;4.10;;;;;;;;;;4998809;28;20227;-74
2022/12/21 13:41:41;;;;;;;6.83;4.13;;;;;;;;;;4996391;28;20250;-74
2022/12/21 13:44:17;;;;;;;5.50;4.23;;;;;;;;;;4997902;28;20196;-74
2022/12/21 13:46:43;;;;;;;6.33;4.43;;;;;;;;;;4999503;28;21471;-74
2022/12/21 13:49:11;;;;;;;6.57;5.33;;;;;;;;;;4997461;28;20270;-75
2022/12/21 13:51:44;;;;;;;7.33;5.20;;;;;;;;;;5001210;28;20966;-75
2022/12/21 13:54:15;;;;;;;6.57;4.63;;;;;;;;;;5000959;28;20199;-75
2022/12/21 13:56:44;;;;;;;9.43;4.33;;;;;;;;;;4999630;28;20199;-75
2022/12/21 13:59:19;;;;;;;8.77;6.07;;;;;;;;;;4998522;28;20210;-75
2022/12/21 14:01:58;;;;;;;6.57;4.87;;;;;;;;;;4997424;28;20625;-75
2022/12/21 14:04:30;;;;;;;13.97;10.33;;;;;;;;;;4996757;28;20663;-75
2022/12/21 14:07:22;;;;;;;16.53;9.27;;;;;;;;;;4998833;28;20211;-75
2022/12/21 14:09:54;;;;;;;8.57;5.60;;;;;;;;;;4995375;28;20195;-75
2022/12/21 14:12:39;;;;;;;6.43;4.77;;;;;;;;;;4997657;28;20950;-75
2022/12/21 14:15:11;;;;;;;6.13;4.83;;;;;;;;;;4995646;28;20250;-75
2022/12/21 14:17:43;;;;;;;5.53;4.50;;;;;;;;;;5002982;28;20218;-75
2022/12/21 14:20:30;;;;;;;8.70;4.53;;;;;;;;;;4999488;28;20638;-75
2022/12/21 14:22:58;;;;;;;5.87;4.87;;;;;;;;;;4999657;28;20204;-76
2022/12/21 14:25:30;;;;;;;8.07;7.13;;;;;;;;;;4998977;28;20180;-75
2022/12/21 14:28:15;;;;;;;8.23;5.43;;;;;;;;;;4998728;28;20194;-76
2022/12/21 14:30:51;;;;;;;5.43;4.80;;;;;;;;;;4998130;28;20178;-74
2022/12/21 14:33:20;;;;;;;5.67;4.40;;;;;;;;;;4997847;28;20192;-75
2022/12/21 14:36:06;;;;;;;7.53;4.57;;;;;;;;;;4999741;28;20274;-75
2022/12/21 14:38:33;;;;;;;7.97;4.30;;;;;;;;;;4997372;28;20734;-74
2022/12/21 14:41:01;;;;;;;5.10;4.33;;;;;;;;;;4994790;28;20214;-75
2022/12/21 14:43:27;;;;;;;6.23;4.77;;;;;;;;;;5004806;28;20185;-75
2022/12/21 14:45:54;;;;;;;5.03;4.20;;;;;;;;;;4995979;28;20179;-73
2022/12/21 14:48:29;;;;;;;6.10;4.77;;;;;;;;;;5001659;28;20183;-73
2022/12/21 14:50:58;;;;;;;6.93;4.80;;;;;;;;;;5001874;28;20233;-74
2022/12/21 14:53:27;;;;;;;6.03;4.67;;;;;;;;;;5007300;28;20273;-74
2022/12/21 14:55:59;;;;;;;8.80;5.17;;;;;;;;;;4998196;28;20211;-74
2022/12/21 14:58:26;;;;;;;5.13;4.20;;;;;;;;;;5002175;28;20191;-75